createdAt,value
2018-12-17T00:00:20.729Z,83.31
2018-12-17T00:02:50.927Z,83.37
2018-12-17T00:05:20.949Z,82.96
2018-12-17T00:07:51.052Z,83.31
2018-12-17T00:10:21.076Z,83.94
2018-12-17T00:12:51.525Z,83.96
2018-12-17T00:15:22.526Z,85.07
2018-12-17T00:17:52.774Z,84.55
2018-12-17T00:20:22.874Z,84.71
2018-12-17T00:22:52.924Z,85.31
2018-12-17T00:25:22.960Z,85.13
2018-12-17T00:27:53.326Z,85.88
2018-12-17T00:30:23.464Z,85.46
2018-12-17T00:32:53.597Z,84.35
2018-12-17T00:35:23.676Z,83.92
2018-12-17T00:37:53.819Z,83.26
2018-12-17T00:40:23.962Z,83.67
2018-12-17T00:42:54.035Z,84.02
2018-12-17T00:45:25.276Z,83.59
2018-12-17T00:47:55.989Z,83.87
2018-12-17T00:50:26.590Z,83.37
2018-12-17T00:52:56.844Z,83.58
2018-12-17T00:55:27.188Z,83.81
2018-12-17T00:57:57.222Z,83.53
2018-12-17T01:00:27.325Z,83.50
2018-12-17T01:02:57.464Z,83.60
2018-12-17T01:05:27.728Z,83.71
2018-12-17T01:07:57.745Z,84.05
2018-12-17T01:10:28.031Z,83.65
2018-12-17T01:12:58.229Z,83.39
2018-12-17T01:15:28.305Z,83.73
2018-12-17T01:17:58.581Z,83.75
2018-12-17T01:20:28.702Z,84.27
2018-12-17T01:22:58.825Z,84.08
2018-12-17T01:25:28.832Z,84.19
2018-12-17T01:27:59.148Z,84.44
2018-12-17T01:30:29.337Z,84.32
2018-12-17T01:32:59.540Z,83.73
2018-12-17T01:35:33.752Z,84.78
2018-12-17T01:38:05.165Z,83.94
2018-12-17T01:40:35.460Z,83.97
2018-12-17T01:43:05.770Z,84.44
2018-12-17T01:45:35.920Z,84.34
2018-12-17T01:48:05.936Z,84.15
2018-12-17T01:50:36.020Z,84.21
2018-12-17T01:53:06.224Z,84.47
2018-12-17T01:55:36.388Z,84.62
2018-12-17T01:58:06.412Z,84.72
2018-12-17T02:00:36.462Z,84.07
2018-12-17T02:03:06.491Z,84.64
2018-12-17T02:05:36.509Z,84.08
2018-12-17T02:08:07.064Z,84.01
2018-12-17T02:10:37.089Z,83.92
2018-12-17T02:13:07.590Z,83.67
2018-12-17T02:15:37.896Z,84.37
2018-12-17T02:18:08.222Z,84.42
2018-12-17T02:20:38.565Z,84.50
2018-12-17T02:23:08.871Z,84.66
2018-12-17T02:25:39.198Z,84.17
2018-12-17T02:28:09.210Z,84.63
2018-12-17T02:30:39.437Z,84.38
2018-12-17T02:33:09.500Z,84.78
2018-12-17T02:35:39.577Z,84.48
2018-12-17T02:38:09.715Z,84.71
2018-12-17T02:40:39.697Z,84.78
2018-12-17T02:43:10.026Z,84.81
2018-12-17T02:45:40.300Z,84.66
2018-12-17T02:48:10.309Z,84.21
2018-12-17T02:50:40.664Z,84.47
2018-12-17T02:53:10.684Z,84.53
2018-12-17T02:55:41.013Z,84.82
2018-12-17T02:58:11.176Z,84.92
2018-12-17T03:00:41.430Z,85.07
2018-12-17T03:03:11.407Z,84.28
2018-12-17T03:05:41.423Z,84.32
2018-12-17T03:08:11.770Z,83.93
2018-12-17T03:10:42.049Z,83.80
2018-12-17T03:13:12.036Z,84.17
2018-12-17T03:15:42.278Z,84.29
2018-12-17T03:18:12.316Z,84.20
2018-12-17T03:20:42.666Z,83.98
2018-12-17T03:23:12.751Z,83.35
2018-12-17T03:25:42.803Z,84.19
2018-12-17T03:28:13.221Z,84.32
2018-12-17T03:30:43.248Z,84.21
2018-12-17T03:33:13.301Z,83.85
2018-12-17T03:35:43.512Z,83.63
2018-12-17T03:38:13.528Z,84.88
2018-12-17T03:40:43.589Z,84.44
2018-12-17T03:43:13.616Z,84.40
2018-12-17T03:45:44.172Z,85.12
2018-12-17T03:48:14.388Z,84.68
2018-12-17T03:50:44.500Z,85.33
2018-12-17T03:53:14.632Z,84.84
2018-12-17T03:55:44.904Z,85.22
2018-12-17T03:58:14.896Z,85.12
2018-12-17T04:00:45.019Z,84.85
2018-12-17T04:03:15.137Z,85.41
2018-12-17T04:05:45.266Z,85.04
2018-12-17T04:08:15.281Z,85.64
2018-12-17T04:10:45.362Z,85.57
2018-12-17T04:13:15.484Z,85.52
2018-12-17T04:15:45.894Z,85.02
2018-12-17T04:18:15.931Z,84.99
2018-12-17T04:20:45.948Z,84.88
2018-12-17T04:23:16.445Z,85.15
2018-12-17T04:25:46.516Z,85.38
2018-12-17T04:28:16.553Z,85.15
2018-12-17T04:30:46.809Z,85.65
2018-12-17T04:33:16.853Z,85.40
2018-12-17T04:35:46.902Z,84.77
2018-12-17T04:38:17.132Z,85.68
2018-12-17T04:40:47.442Z,85.19
2018-12-17T04:43:17.487Z,85.17
2018-12-17T04:45:47.702Z,85.93
2018-12-17T04:48:18.584Z,85.86
2018-12-17T04:50:48.608Z,85.71
2018-12-17T04:53:18.627Z,85.71
2018-12-17T04:55:48.956Z,85.75
2018-12-17T04:58:19.305Z,85.89
2018-12-17T05:00:49.302Z,85.50
2018-12-17T05:03:19.361Z,85.23
2018-12-17T05:05:49.389Z,84.97
2018-12-17T05:08:19.676Z,85.17
2018-12-17T05:10:49.695Z,85.30
2018-12-17T05:13:19.924Z,85.94
2018-12-17T05:15:50.052Z,85.94
2018-12-17T05:18:20.363Z,85.18
2018-12-17T05:20:50.574Z,85.43
2018-12-17T05:23:21.199Z,85.83
2018-12-17T05:25:51.228Z,85.99
2018-12-17T05:28:21.262Z,85.63
2018-12-17T05:30:51.288Z,86.08
2018-12-17T05:33:21.743Z,86.10
2018-12-17T05:35:51.738Z,86.19
2018-12-17T05:38:21.729Z,86.00
2018-12-17T05:40:52.400Z,86.60
2018-12-17T05:43:22.597Z,86.70
2018-12-17T05:45:53.171Z,85.77
2018-12-17T05:48:23.246Z,86.50
2018-12-17T05:50:53.423Z,86.13
2018-12-17T05:53:23.597Z,86.09
2018-12-17T05:55:53.664Z,86.21
2018-12-17T05:58:23.718Z,86.53
2018-12-17T06:00:53.793Z,86.21
2018-12-17T06:03:24.280Z,86.15
2018-12-17T06:05:54.543Z,86.13
2018-12-17T06:08:24.619Z,86.51
2018-12-17T06:10:54.642Z,86.29
2018-12-17T06:13:24.737Z,86.72
2018-12-17T06:15:55.187Z,86.53
2018-12-17T06:18:25.361Z,85.82
2018-12-17T06:20:55.940Z,85.74
2018-12-17T06:23:26.069Z,85.82
2018-12-17T06:25:56.877Z,85.96
2018-12-17T06:28:27.283Z,86.18
2018-12-17T06:30:57.312Z,86.82
2018-12-17T06:33:27.641Z,87.11
2018-12-17T06:35:57.805Z,86.18
2018-12-17T06:38:27.830Z,86.64
2018-12-17T06:40:58.032Z,86.19
2018-12-17T06:43:28.038Z,86.99
2018-12-17T06:45:58.101Z,88.44
2018-12-17T06:48:28.126Z,88.86
2018-12-17T06:50:58.194Z,88.38
2018-12-17T06:53:28.184Z,88.95
2018-12-17T06:55:58.643Z,88.03
2018-12-17T06:58:29.085Z,87.82
2018-12-17T07:00:59.309Z,87.54
2018-12-17T07:03:29.315Z,87.76
2018-12-17T07:06:00.572Z,87.76
2018-12-17T07:08:30.684Z,87.22
2018-12-17T07:11:00.772Z,87.18
2018-12-17T07:13:30.916Z,86.91
2018-12-17T07:16:01.089Z,87.45
2018-12-17T07:18:31.201Z,87.09
2018-12-17T07:21:01.216Z,87.28
2018-12-17T07:23:31.235Z,87.77
2018-12-17T07:26:01.424Z,87.86
2018-12-17T07:28:31.785Z,87.30
2018-12-17T07:31:01.859Z,86.81
2018-12-17T07:33:32.508Z,87.69
2018-12-17T07:36:02.742Z,87.32
2018-12-17T07:38:33.059Z,86.91
2018-12-17T07:41:03.233Z,87.69
2018-12-17T07:43:33.236Z,87.10
2018-12-17T07:46:03.460Z,87.19
2018-12-17T07:48:33.792Z,87.01
2018-12-17T07:51:03.809Z,87.77
2018-12-17T07:53:33.844Z,87.92
2018-12-17T07:56:03.895Z,87.63
2018-12-17T07:58:34.223Z,87.45
2018-12-17T08:01:04.721Z,87.22
2018-12-17T08:03:34.768Z,87.27
2018-12-17T08:06:04.806Z,86.74
2018-12-17T08:08:35.505Z,87.20
2018-12-17T08:11:05.894Z,87.24
2018-12-17T08:13:36.176Z,87.82
2018-12-17T08:16:06.227Z,87.79
2018-12-17T08:18:36.484Z,87.54
2018-12-17T08:21:06.797Z,87.48
2018-12-17T08:23:37.099Z,88.05
2018-12-17T08:26:07.328Z,88.12
2018-12-17T08:28:38.404Z,87.75
2018-12-17T08:31:09.091Z,87.46
2018-12-17T08:33:39.263Z,87.39
2018-12-17T08:36:09.257Z,87.66
2018-12-17T08:38:39.969Z,87.50
2018-12-17T08:41:10.489Z,86.76
2018-12-17T08:43:40.506Z,87.37
2018-12-17T08:46:10.677Z,87.27
2018-12-17T08:48:40.873Z,86.81
2018-12-17T08:51:11.180Z,86.84
2018-12-17T08:53:41.245Z,86.92
2018-12-17T08:56:11.358Z,86.33
2018-12-17T08:58:41.391Z,87.13
2018-12-17T09:01:11.408Z,86.96
2018-12-17T09:03:41.427Z,86.86
2018-12-17T09:06:11.568Z,86.51
2018-12-17T09:08:42.065Z,86.86
2018-12-17T09:11:12.211Z,86.57
2018-12-17T09:13:42.217Z,86.42
2018-12-17T09:16:13.091Z,86.00
2018-12-17T09:18:43.091Z,86.41
2018-12-17T09:21:13.139Z,86.21
2018-12-17T09:23:43.223Z,86.06
2018-12-17T09:26:13.257Z,85.64
2018-12-17T09:28:43.284Z,85.98
2018-12-17T09:31:13.513Z,86.09
2018-12-17T09:33:43.597Z,85.98
2018-12-17T09:36:13.624Z,85.87
2018-12-17T09:38:43.781Z,86.25
2018-12-17T09:41:13.809Z,86.29
2018-12-17T09:43:43.854Z,85.97
2018-12-17T09:46:13.856Z,85.55
2018-12-17T09:48:44.899Z,86.16
2018-12-17T09:51:19.475Z,85.12
2018-12-17T09:53:48.034Z,85.43
2018-12-17T09:56:18.327Z,85.20
2018-12-17T09:58:48.980Z,85.80
2018-12-17T10:01:19.181Z,85.40
2018-12-17T10:03:49.324Z,85.04
2018-12-17T10:06:19.448Z,84.99
2018-12-17T10:08:49.816Z,84.33
2018-12-17T10:11:20.724Z,84.54
2018-12-17T10:13:51.089Z,84.34
2018-12-17T10:16:21.100Z,84.13
2018-12-17T10:18:51.151Z,83.92
2018-12-17T10:21:21.420Z,83.39
2018-12-17T10:23:51.545Z,83.15
2018-12-17T10:26:21.740Z,83.32
2018-12-17T10:28:52.070Z,83.35
2018-12-17T10:31:22.326Z,82.59
2018-12-17T10:33:52.578Z,82.09
2018-12-17T10:36:22.628Z,80.92
2018-12-17T10:38:52.681Z,80.17
2018-12-17T10:41:22.750Z,80.30
2018-12-17T10:43:52.813Z,80.84
2018-12-17T10:46:22.905Z,81.01
2018-12-17T10:48:52.900Z,80.46
2018-12-17T10:51:22.989Z,81.34
2018-12-17T10:53:53.027Z,81.48
2018-12-17T10:56:23.372Z,81.92
2018-12-17T10:58:53.399Z,80.90
2018-12-17T11:01:28.765Z,80.41
2018-12-17T11:04:04.552Z,80.57
2018-12-17T11:06:35.819Z,81.18
2018-12-17T11:09:09.365Z,81.94
2018-12-17T11:11:39.641Z,83.06
2018-12-17T11:14:09.672Z,82.40
2018-12-17T11:16:39.863Z,82.34
2018-12-17T11:19:09.934Z,81.01
2018-12-17T11:21:39.933Z,81.49
2018-12-17T11:24:10.281Z,81.92
2018-12-17T11:26:41.061Z,81.16
2018-12-17T11:29:11.255Z,80.93
2018-12-17T11:31:41.301Z,80.29
2018-12-17T11:34:11.330Z,81.00
2018-12-17T11:36:41.415Z,80.97
2018-12-17T11:39:11.556Z,81.99
2018-12-17T11:41:42.443Z,81.46
2018-12-17T11:44:12.578Z,82.32
2018-12-17T11:46:44.361Z,82.26
2018-12-17T11:49:14.715Z,82.29
2018-12-17T11:51:45.173Z,81.32
2018-12-17T11:54:15.523Z,81.65
2018-12-17T11:56:55.312Z,81.26
2018-12-17T11:59:25.360Z,81.23
2018-12-17T12:01:55.736Z,81.54
2018-12-17T12:04:25.761Z,81.10
2018-12-17T12:06:55.817Z,82.00
2018-12-17T12:09:26.092Z,82.65
2018-12-17T12:11:56.389Z,82.66
2018-12-17T12:14:26.633Z,82.98
2018-12-17T12:16:56.962Z,83.26
2018-12-17T12:19:27.049Z,82.83
2018-12-17T12:21:57.179Z,82.78
2018-12-17T12:24:27.305Z,82.53
2018-12-17T12:26:57.318Z,82.64
2018-12-17T12:29:27.396Z,82.82
2018-12-17T12:31:57.521Z,82.85
2018-12-17T12:34:27.557Z,82.99
2018-12-17T12:36:57.593Z,83.03
2018-12-17T12:39:27.813Z,83.49
2018-12-17T12:41:57.830Z,83.32
2018-12-17T12:44:27.857Z,82.99
2018-12-17T12:46:58.002Z,83.59
2018-12-17T12:49:28.222Z,83.82
2018-12-17T12:51:58.331Z,83.50
2018-12-17T12:54:28.866Z,83.20
2018-12-17T12:56:59.948Z,83.78
2018-12-17T12:59:31.088Z,83.73
2018-12-17T13:02:02.032Z,82.85
2018-12-17T13:04:33.347Z,83.32
2018-12-17T13:07:03.526Z,83.86
2018-12-17T13:09:33.597Z,84.14
2018-12-17T13:12:03.666Z,82.79
2018-12-17T13:14:34.281Z,82.88
2018-12-17T13:17:09.647Z,83.35
2018-12-17T13:19:41.076Z,83.38
2018-12-17T13:22:11.129Z,83.01
2018-12-17T13:24:41.342Z,83.06
2018-12-17T13:27:11.576Z,83.16
2018-12-17T13:29:41.713Z,83.70
2018-12-17T13:32:11.811Z,83.14
2018-12-17T13:34:42.973Z,83.93
2018-12-17T13:37:13.022Z,84.18
2018-12-17T13:39:43.270Z,84.76
2018-12-17T13:42:13.308Z,85.09
2018-12-17T13:44:43.540Z,83.91
2018-12-17T13:47:13.669Z,84.93
2018-12-17T13:49:43.932Z,83.91
2018-12-17T13:52:19.397Z,83.73
2018-12-17T13:54:49.679Z,84.26
2018-12-17T13:57:20.616Z,84.59
2018-12-17T13:59:50.776Z,84.35
2018-12-17T14:02:21.083Z,84.68
2018-12-17T14:04:51.099Z,84.11
2018-12-17T14:07:21.300Z,83.96
2018-12-17T14:09:57.016Z,83.62
2018-12-17T14:12:27.261Z,85.59
2018-12-17T14:14:57.288Z,85.73
2018-12-17T14:17:32.637Z,86.19
2018-12-17T14:20:07.863Z,84.99
2018-12-17T14:22:38.481Z,84.91
2018-12-17T14:25:09.089Z,84.86
2018-12-17T14:27:39.572Z,85.18
2018-12-17T14:30:10.390Z,85.71
2018-12-17T14:32:40.498Z,86.66
2018-12-17T14:35:10.557Z,86.24
2018-12-17T14:37:45.721Z,86.79
2018-12-17T14:40:16.037Z,86.16
2018-12-17T14:42:46.013Z,85.92
2018-12-17T14:45:16.149Z,86.28
2018-12-17T14:47:46.201Z,86.64
2018-12-17T14:50:16.333Z,87.48
2018-12-17T14:52:47.180Z,87.32
2018-12-17T14:55:17.213Z,87.29
2018-12-17T14:57:47.557Z,87.11
2018-12-17T15:00:17.663Z,87.16
2018-12-17T15:02:48.681Z,87.18
2018-12-17T15:05:20.065Z,87.22
2018-12-17T15:07:50.137Z,87.77
2018-12-17T15:10:20.161Z,88.05
2018-12-17T15:12:50.658Z,87.61
2018-12-17T15:15:20.754Z,87.88
2018-12-17T15:17:50.972Z,87.86
2018-12-17T15:20:21.193Z,88.00
2018-12-17T15:22:52.597Z,87.92
2018-12-17T15:25:23.038Z,88.24
2018-12-17T15:27:53.147Z,88.19
2018-12-17T15:30:23.519Z,88.14
2018-12-17T15:32:53.525Z,88.18
2018-12-17T15:35:23.565Z,88.06
2018-12-17T15:37:53.560Z,88.02
2018-12-17T15:40:23.953Z,88.14
2018-12-17T15:42:53.980Z,88.31
2018-12-17T15:45:24.926Z,88.34
2018-12-17T15:47:55.131Z,88.46
2018-12-17T15:50:25.181Z,88.18
2018-12-17T15:52:55.344Z,88.38
2018-12-17T15:55:26.496Z,88.27
2018-12-17T15:57:56.585Z,88.00
2018-12-17T16:00:26.606Z,87.23
2018-12-17T16:02:56.892Z,87.68
2018-12-17T16:05:27.878Z,88.10
2018-12-17T16:07:58.104Z,87.75
2018-12-17T16:10:28.448Z,88.02
2018-12-17T16:12:58.841Z,88.88
2018-12-17T16:15:29.257Z,89.45
2018-12-17T16:17:59.754Z,89.35
2018-12-17T16:20:30.449Z,89.50
2018-12-17T16:23:00.745Z,88.84
2018-12-17T16:25:34.241Z,88.50
2018-12-17T16:28:05.676Z,88.65
2018-12-17T16:30:35.897Z,87.93
2018-12-17T16:33:06.332Z,88.86
2018-12-17T16:35:36.401Z,89.55
2018-12-17T16:38:06.502Z,89.28
2018-12-17T16:40:37.902Z,90.00
2018-12-17T16:43:07.996Z,88.93
2018-12-17T16:45:38.178Z,88.85
2018-12-17T16:48:08.286Z,88.73
2018-12-17T16:50:38.346Z,88.64
2018-12-17T16:53:08.666Z,88.53
2018-12-17T16:55:39.548Z,88.62
2018-12-17T16:58:09.796Z,88.39
2018-12-17T17:00:39.797Z,88.57
2018-12-17T17:03:11.086Z,89.11
2018-12-17T17:05:41.908Z,88.92
2018-12-17T17:08:12.062Z,88.86
2018-12-17T17:10:42.100Z,89.23
2018-12-17T17:13:12.553Z,89.10
2018-12-17T17:15:42.724Z,89.20
2018-12-17T17:18:12.801Z,89.18
2018-12-17T17:20:43.081Z,88.51
2018-12-17T17:23:13.140Z,88.24
2018-12-17T17:25:43.262Z,88.27
2018-12-17T17:28:13.289Z,87.83
2018-12-17T17:30:43.410Z,88.38
2018-12-17T17:33:13.524Z,88.62
2018-12-17T17:35:43.653Z,88.01
2018-12-17T17:38:13.677Z,88.70
2018-12-17T17:40:43.744Z,88.85
2018-12-17T17:43:13.940Z,88.83
2018-12-17T17:45:44.090Z,88.86
2018-12-17T17:48:14.127Z,89.36
2018-12-17T17:50:44.271Z,89.14
2018-12-17T17:53:14.392Z,89.16
2018-12-17T17:55:44.410Z,89.49
2018-12-17T17:58:15.520Z,89.22
2018-12-17T18:00:45.640Z,88.71
2018-12-17T18:03:16.001Z,88.70
2018-12-17T18:05:46.052Z,88.96
2018-12-17T18:08:16.220Z,89.22
2018-12-17T18:10:46.429Z,89.66
2018-12-17T18:13:16.490Z,90.57
2018-12-17T18:15:46.530Z,90.77
2018-12-17T18:18:16.562Z,90.93
2018-12-17T18:20:47.036Z,90.75
2018-12-17T18:23:17.104Z,90.26
2018-12-17T18:25:47.280Z,89.60
2018-12-17T18:28:17.542Z,89.22
2018-12-17T18:30:47.714Z,89.47
2018-12-17T18:33:17.852Z,89.32
2018-12-17T18:35:47.949Z,90.02
2018-12-17T18:38:17.978Z,89.74
2018-12-17T18:40:48.025Z,90.37
2018-12-17T18:43:18.123Z,90.34
2018-12-17T18:45:48.360Z,90.35
2018-12-17T18:48:18.583Z,90.06
2018-12-17T18:50:48.690Z,88.84
2018-12-17T18:53:18.809Z,89.03
2018-12-17T18:55:48.881Z,90.09
2018-12-17T18:58:18.924Z,89.84
2018-12-17T19:00:49.207Z,90.45
2018-12-17T19:03:20.131Z,90.05
2018-12-17T19:05:51.701Z,90.59
2018-12-17T19:08:21.889Z,90.77
2018-12-17T19:10:56.236Z,90.75
2018-12-17T19:13:26.297Z,90.86
2018-12-17T19:15:56.409Z,90.60
2018-12-17T19:18:26.478Z,91.22
2018-12-17T19:20:56.524Z,90.90
2018-12-17T19:23:26.784Z,91.21
2018-12-17T19:25:57.094Z,91.25
2018-12-17T19:28:27.174Z,91.49
2018-12-17T19:30:57.409Z,90.89
2018-12-17T19:33:27.662Z,91.03
2018-12-17T19:35:57.715Z,90.70
2018-12-17T19:38:27.752Z,90.90
2018-12-17T19:40:57.861Z,91.08
2018-12-17T19:43:27.918Z,91.01
2018-12-17T19:45:57.992Z,90.57
2018-12-17T19:48:28.126Z,90.80
2018-12-17T19:50:58.278Z,90.81
2018-12-17T19:53:28.361Z,90.57
2018-12-17T19:55:58.591Z,90.34
2018-12-17T19:58:28.695Z,90.32
2018-12-17T20:00:58.881Z,90.12
2018-12-17T20:03:28.999Z,90.58
2018-12-17T20:05:59.633Z,90.52
2018-12-17T20:08:30.021Z,90.13
2018-12-17T20:11:00.125Z,90.00
2018-12-17T20:13:30.179Z,90.48
2018-12-17T20:16:00.735Z,90.00
2018-12-17T20:18:30.898Z,90.46
2018-12-17T20:21:01.049Z,89.95
2018-12-17T20:23:31.173Z,90.25
2018-12-17T20:26:01.278Z,90.41
2018-12-17T20:28:31.378Z,90.36
2018-12-17T20:31:01.484Z,90.36
2018-12-17T20:33:31.591Z,89.91
2018-12-17T20:36:01.631Z,90.28
2018-12-17T20:38:31.645Z,89.95
2018-12-17T20:41:01.774Z,90.21
2018-12-17T20:43:32.020Z,89.79
2018-12-17T20:46:02.060Z,90.24
2018-12-17T20:48:32.120Z,90.29
2018-12-17T20:51:02.307Z,89.63
2018-12-17T20:53:32.328Z,89.83
2018-12-17T20:56:02.766Z,90.43
2018-12-17T20:58:32.959Z,90.52
2018-12-17T21:01:02.997Z,90.45
2018-12-17T21:03:33.375Z,90.63
2018-12-17T21:06:03.397Z,90.49
2018-12-17T21:08:33.503Z,89.94
2018-12-17T21:11:03.566Z,89.83
2018-12-17T21:13:33.666Z,90.50
2018-12-17T21:16:03.740Z,91.15
2018-12-17T21:18:33.891Z,91.05
2018-12-17T21:21:04.107Z,90.99
2018-12-17T21:23:34.284Z,91.69
2018-12-17T21:26:04.320Z,92.02
2018-12-17T21:28:34.415Z,92.29
2018-12-17T21:31:04.565Z,92.42
2018-12-17T21:33:34.600Z,92.46
2018-12-17T21:36:05.125Z,92.27
2018-12-17T21:38:35.171Z,91.94
2018-12-17T21:41:05.450Z,91.92
2018-12-17T21:43:36.201Z,92.78
2018-12-17T21:46:06.470Z,91.62
2018-12-17T21:48:36.748Z,92.75
2018-12-17T21:51:06.861Z,92.65
2018-12-17T21:53:36.905Z,91.67
2018-12-17T21:56:06.968Z,91.46
2018-12-17T21:58:37.417Z,91.13
2018-12-17T22:01:07.460Z,91.05
2018-12-17T22:03:37.728Z,90.63
2018-12-17T22:06:07.750Z,91.21
2018-12-17T22:08:37.760Z,90.75
2018-12-17T22:11:07.830Z,90.65
2018-12-17T22:13:37.826Z,90.66
2018-12-17T22:16:07.837Z,91.29
2018-12-17T22:18:37.893Z,91.03
2018-12-17T22:21:07.929Z,90.65
2018-12-17T22:23:38.053Z,91.12
2018-12-17T22:26:08.170Z,90.64
2018-12-17T22:28:38.597Z,90.42
2018-12-17T22:31:08.824Z,90.68
2018-12-17T22:33:38.942Z,89.90
2018-12-17T22:36:09.014Z,90.20
2018-12-17T22:38:39.041Z,90.62
2018-12-17T22:41:09.264Z,90.46
2018-12-17T22:43:39.278Z,90.96
2018-12-17T22:46:09.373Z,90.16
2018-12-17T22:48:39.442Z,90.38
2018-12-17T22:51:09.632Z,90.11
2018-12-17T22:53:39.635Z,90.40
2018-12-17T22:56:09.766Z,90.41
2018-12-17T22:58:42.487Z,90.47
2018-12-17T23:01:11.852Z,89.93
2018-12-17T23:03:42.001Z,90.26
2018-12-17T23:06:12.080Z,90.64
2018-12-17T23:09:06.170Z,90.76
2018-12-17T23:11:52.569Z,90.74
2018-12-17T23:14:33.890Z,90.40
2018-12-17T23:17:15.409Z,90.46
2018-12-17T23:19:46.262Z,90.88
2018-12-17T23:22:16.503Z,90.63
2018-12-17T23:24:46.632Z,90.50
2018-12-17T23:27:16.774Z,91.28
2018-12-17T23:29:47.029Z,91.14
2018-12-17T23:32:17.080Z,91.23
2018-12-17T23:34:47.224Z,90.73
2018-12-17T23:37:17.249Z,90.99
2018-12-17T23:39:47.357Z,90.99
2018-12-17T23:42:17.386Z,90.48
2018-12-17T23:44:47.460Z,90.62
2018-12-17T23:47:17.529Z,90.58
2018-12-17T23:49:47.533Z,90.09
2018-12-17T23:52:17.605Z,91.24
2018-12-17T23:54:47.774Z,90.48
2018-12-17T23:57:17.937Z,90.66
2018-12-17T23:59:47.948Z,90.58
